sensor_id;sensor_type;location;lat;lon;timestamp;P1;durP1;ratioP1;P2;durP2;ratioP2
39654;SDS011;25336;59.944;11.010;2023-03-19T00:01:42;1.77;;;1.60;;
39654;SDS011;25336;59.944;11.010;2023-03-19T00:04:07;3.92;;;1.95;;
39654;SDS011;25336;59.944;11.010;2023-03-19T00:06:33;1.90;;;1.75;;
39654;SDS011;25336;59.944;11.010;2023-03-19T00:08:59;1.80;;;1.70;;
39654;SDS011;25336;59.944;11.010;2023-03-19T00:11:24;1.58;;;1.48;;
39654;SDS011;25336;59.944;11.010;2023-03-19T00:13:50;1.88;;;1.40;;
39654;SDS011;25336;59.944;11.010;2023-03-19T00:16:15;2.58;;;1.55;;
39654;SDS011;25336;59.944;11.010;2023-03-19T00:18:41;2.53;;;1.60;;
39654;SDS011;25336;59.944;11.010;2023-03-19T00:21:07;1.75;;;1.65;;
39654;SDS011;25336;59.944;11.010;2023-03-19T00:23:33;4.65;;;1.65;;
39654;SDS011;25336;59.944;11.010;2023-03-19T00:26:00;2.05;;;1.70;;
39654;SDS011;25336;59.944;11.010;2023-03-19T00:28:26;2.45;;;2.00;;
39654;SDS011;25336;59.944;11.010;2023-03-19T00:30:52;2.50;;;1.55;;
39654;SDS011;25336;59.944;11.010;2023-03-19T00:33:18;1.90;;;1.77;;
39654;SDS011;25336;59.944;11.010;2023-03-19T00:35:45;4.10;;;2.03;;
39654;SDS011;25336;59.944;11.010;2023-03-19T00:38:11;2.85;;;1.80;;
39654;SDS011;25336;59.944;11.010;2023-03-19T00:40:37;2.08;;;1.50;;
39654;SDS011;25336;59.944;11.010;2023-03-19T00:43:02;2.03;;;1.55;;
39654;SDS011;25336;59.944;11.010;2023-03-19T00:45:28;1.75;;;1.63;;
39654;SDS011;25336;59.944;11.010;2023-03-19T00:47:54;3.28;;;1.73;;
39654;SDS011;25336;59.944;11.010;2023-03-19T00:50:21;2.25;;;1.60;;
39654;SDS011;25336;59.944;11.010;2023-03-19T00:52:47;2.30;;;1.67;;
39654;SDS011;25336;59.944;11.010;2023-03-19T00:55:12;1.92;;;1.60;;
39654;SDS011;25336;59.944;11.010;2023-03-19T00:57:38;1.90;;;1.70;;
39654;SDS011;25336;59.944;11.010;2023-03-19T01:00:04;2.42;;;1.95;;
39654;SDS011;25336;59.944;11.010;2023-03-19T01:02:30;1.90;;;1.60;;
39654;SDS011;25336;59.944;11.010;2023-03-19T01:04:56;2.95;;;1.70;;
39654;SDS011;25336;59.944;11.010;2023-03-19T01:07:21;3.13;;;1.98;;
39654;SDS011;25336;59.944;11.010;2023-03-19T01:09:47;1.52;;;1.42;;
39654;SDS011;25336;59.944;11.010;2023-03-19T01:12:13;2.15;;;1.50;;
39654;SDS011;25336;59.944;11.010;2023-03-19T01:14:38;1.90;;;1.70;;
39654;SDS011;25336;59.944;11.010;2023-03-19T01:17:04;1.60;;;1.50;;
39654;SDS011;25336;59.944;11.010;2023-03-19T01:19:30;2.67;;;1.55;;
39654;SDS011;25336;59.944;11.010;2023-03-19T01:21:56;1.73;;;1.30;;
39654;SDS011;25336;59.944;11.010;2023-03-19T01:24:22;2.70;;;1.40;;
39654;SDS011;25336;59.944;11.010;2023-03-19T01:26:47;1.67;;;1.40;;
39654;SDS011;25336;59.944;11.010;2023-03-19T01:29:13;3.97;;;1.90;;
39654;SDS011;25336;59.944;11.010;2023-03-19T01:31:39;3.88;;;2.22;;
39654;SDS011;25336;59.944;11.010;2023-03-19T01:34:04;1.90;;;1.58;;
39654;SDS011;25336;59.944;11.010;2023-03-19T01:36:30;1.98;;;1.70;;
39654;SDS011;25336;59.944;11.010;2023-03-19T01:38:56;2.15;;;1.90;;
39654;SDS011;25336;59.944;11.010;2023-03-19T01:41:22;2.33;;;1.88;;
39654;SDS011;25336;59.944;11.010;2023-03-19T01:43:48;2.05;;;1.60;;
39654;SDS011;25336;59.944;11.010;2023-03-19T01:46:27;2.25;;;1.52;;
39654;SDS011;25336;59.944;11.010;2023-03-19T01:48:57;2.85;;;1.98;;
39654;SDS011;25336;59.944;11.010;2023-03-19T01:51:26;2.80;;;1.58;;
39654;SDS011;25336;59.944;11.010;2023-03-19T01:53:57;2.27;;;1.30;;
39654;SDS011;25336;59.944;11.010;2023-03-19T01:56:27;1.73;;;1.60;;
39654;SDS011;25336;59.944;11.010;2023-03-19T01:59:03;4.03;;;1.73;;
39654;SDS011;25336;59.944;11.010;2023-03-19T02:01:55;2.03;;;1.85;;
39654;SDS011;25336;59.944;11.010;2023-03-19T02:04:24;1.42;;;1.33;;
39654;SDS011;25336;59.944;11.010;2023-03-19T02:06:52;1.80;;;1.50;;
39654;SDS011;25336;59.944;11.010;2023-03-19T02:09:20;4.20;;;1.70;;
39654;SDS011;25336;59.944;11.010;2023-03-19T02:11:46;1.75;;;1.50;;
39654;SDS011;25336;59.944;11.010;2023-03-19T02:14:11;1.45;;;1.33;;
39654;SDS011;25336;59.944;11.010;2023-03-19T02:16:37;4.72;;;2.42;;
39654;SDS011;25336;59.944;11.010;2023-03-19T02:19:03;4.07;;;2.65;;
39654;SDS011;25336;59.944;11.010;2023-03-19T02:21:33;3.42;;;2.63;;
39654;SDS011;25336;59.944;11.010;2023-03-19T02:24:00;6.30;;;3.17;;
39654;SDS011;25336;59.944;11.010;2023-03-19T02:26:32;3.70;;;2.55;;
39654;SDS011;25336;59.944;11.010;2023-03-19T02:28:59;2.03;;;1.80;;
39654;SDS011;25336;59.944;11.010;2023-03-19T02:31:25;1.75;;;1.65;;
39654;SDS011;25336;59.944;11.010;2023-03-19T02:36:39;1.75;;;1.60;;
39654;SDS011;25336;59.944;11.010;2023-03-19T02:39:09;1.52;;;1.40;;
39654;SDS011;25336;59.944;11.010;2023-03-19T02:41:43;1.80;;;1.30;;
39654;SDS011;25336;59.944;11.010;2023-03-19T02:44:11;2.97;;;1.70;;
39654;SDS011;25336;59.944;11.010;2023-03-19T02:46:36;1.65;;;1.55;;
39654;SDS011;25336;59.944;11.010;2023-03-19T02:49:02;1.83;;;1.50;;
39654;SDS011;25336;59.944;11.010;2023-03-19T02:51:28;2.53;;;1.67;;
39654;SDS011;25336;59.944;11.010;2023-03-19T02:53:53;1.65;;;1.50;;
39654;SDS011;25336;59.944;11.010;2023-03-19T02:56:19;1.65;;;1.52;;
39654;SDS011;25336;59.944;11.010;2023-03-19T02:58:45;1.20;;;1.10;;
39654;SDS011;25336;59.944;11.010;2023-03-19T03:01:11;1.40;;;1.30;;
39654;SDS011;25336;59.944;11.010;2023-03-19T03:03:36;1.40;;;1.30;;
39654;SDS011;25336;59.944;11.010;2023-03-19T03:06:02;1.20;;;1.10;;
39654;SDS011;25336;59.944;11.010;2023-03-19T03:08:27;1.92;;;1.58;;
39654;SDS011;25336;59.944;11.010;2023-03-19T03:10:53;1.40;;;1.30;;
39654;SDS011;25336;59.944;11.010;2023-03-19T03:13:19;1.35;;;1.25;;
39654;SDS011;25336;59.944;11.010;2023-03-19T03:15:45;2.70;;;1.35;;
39654;SDS011;25336;59.944;11.010;2023-03-19T03:18:10;1.38;;;1.27;;
39654;SDS011;25336;59.944;11.010;2023-03-19T03:20:36;1.60;;;1.50;;
39654;SDS011;25336;59.944;11.010;2023-03-19T03:23:02;1.67;;;1.58;;
39654;SDS011;25336;59.944;11.010;2023-03-19T03:25:27;1.60;;;1.40;;
39654;SDS011;25336;59.944;11.010;2023-03-19T03:27:54;2.65;;;1.38;;
39654;SDS011;25336;59.944;11.010;2023-03-19T03:30:20;1.63;;;1.20;;
39654;SDS011;25336;59.944;11.010;2023-03-19T03:32:45;1.20;;;1.10;;
39654;SDS011;25336;59.944;11.010;2023-03-19T03:35:11;1.30;;;1.20;;
39654;SDS011;25336;59.944;11.010;2023-03-19T03:37:37;1.75;;;1.33;;
39654;SDS011;25336;59.944;11.010;2023-03-19T03:40:04;2.22;;;1.00;;
39654;SDS011;25336;59.944;11.010;2023-03-19T03:42:34;1.48;;;1.25;;
39654;SDS011;25336;59.944;11.010;2023-03-19T03:45:01;1.40;;;1.30;;
39654;SDS011;25336;59.944;11.010;2023-03-19T03:47:26;1.38;;;1.02;;
39654;SDS011;25336;59.944;11.010;2023-03-19T03:49:52;1.38;;;1.27;;
39654;SDS011;25336;59.944;11.010;2023-03-19T03:52:17;0.95;;;0.93;;
39654;SDS011;25336;59.944;11.010;2023-03-19T03:54:43;1.30;;;1.02;;
39654;SDS011;25336;59.944;11.010;2023-03-19T03:57:09;1.70;;;1.17;;
39654;SDS011;25336;59.944;11.010;2023-03-19T03:59:34;1.30;;;1.20;;
39654;SDS011;25336;59.944;11.010;2023-03-19T04:02:00;1.23;;;1.02;;
39654;SDS011;25336;59.944;11.010;2023-03-19T04:04:26;1.13;;;1.02;;
39654;SDS011;25336;59.944;11.010;2023-03-19T04:06:51;2.58;;;1.17;;
39654;SDS011;25336;59.944;11.010;2023-03-19T04:09:17;1.48;;;1.13;;
39654;SDS011;25336;59.944;11.010;2023-03-19T04:11:43;2.38;;;0.98;;
39654;SDS011;25336;59.944;11.010;2023-03-19T04:14:09;1.10;;;1.00;;
39654;SDS011;25336;59.944;11.010;2023-03-19T04:16:35;1.05;;;1.00;;
39654;SDS011;25336;59.944;11.010;2023-03-19T04:19:01;2.10;;;1.05;;
39654;SDS011;25336;59.944;11.010;2023-03-19T04:21:27;1.23;;;1.13;;
39654;SDS011;25336;59.944;11.010;2023-03-19T04:23:53;1.48;;;1.05;;
39654;SDS011;25336;59.944;11.010;2023-03-19T04:26:19;1.42;;;1.00;;
39654;SDS011;25336;59.944;11.010;2023-03-19T04:28:45;1.23;;;1.10;;
39654;SDS011;25336;59.944;11.010;2023-03-19T04:31:11;0.80;;;0.80;;
39654;SDS011;25336;59.944;11.010;2023-03-19T04:33:36;1.52;;;1.20;;
39654;SDS011;25336;59.944;11.010;2023-03-19T04:36:03;1.65;;;1.02;;
39654;SDS011;25336;59.944;11.010;2023-03-19T04:38:29;1.40;;;1.27;;
39654;SDS011;25336;59.944;11.010;2023-03-19T04:40:55;1.10;;;1.00;;
39654;SDS011;25336;59.944;11.010;2023-03-19T04:43:21;1.33;;;1.25;;
39654;SDS011;25336;59.944;11.010;2023-03-19T04:45:47;1.00;;;1.00;;
39654;SDS011;25336;59.944;11.010;2023-03-19T04:48:13;1.17;;;1.08;;
39654;SDS011;25336;59.944;11.010;2023-03-19T04:50:39;1.40;;;1.15;;
39654;SDS011;25336;59.944;11.010;2023-03-19T04:53:05;2.67;;;1.20;;
39654;SDS011;25336;59.944;11.010;2023-03-19T04:55:32;1.27;;;1.08;;
39654;SDS011;25336;59.944;11.010;2023-03-19T04:57:58;1.05;;;1.00;;
39654;SDS011;25336;59.944;11.010;2023-03-19T05:00:24;1.77;;;1.58;;
39654;SDS011;25336;59.944;11.010;2023-03-19T05:02:50;3.70;;;1.27;;
39654;SDS011;25336;59.944;11.010;2023-03-19T05:05:16;1.30;;;1.20;;
39654;SDS011;25336;59.944;11.010;2023-03-19T05:07:42;1.52;;;1.42;;
39654;SDS011;25336;59.944;11.010;2023-03-19T05:10:08;1.75;;;1.55;;
39654;SDS011;25336;59.944;11.010;2023-03-19T05:12:34;1.65;;;1.42;;
39654;SDS011;25336;59.944;11.010;2023-03-19T05:15:00;1.50;;;1.40;;
39654;SDS011;25336;59.944;11.010;2023-03-19T05:17:26;1.45;;;1.30;;
39654;SDS011;25336;59.944;11.010;2023-03-19T05:19:52;2.22;;;1.60;;
39654;SDS011;25336;59.944;11.010;2023-03-19T05:22:18;1.65;;;1.38;;
39654;SDS011;25336;59.944;11.010;2023-03-19T05:24:44;3.05;;;1.55;;
39654;SDS011;25336;59.944;11.010;2023-03-19T05:27:11;1.15;;;1.05;;
39654;SDS011;25336;59.944;11.010;2023-03-19T05:29:37;1.25;;;1.15;;
39654;SDS011;25336;59.944;11.010;2023-03-19T05:32:03;1.38;;;1.27;;
39654;SDS011;25336;59.944;11.010;2023-03-19T05:34:29;1.40;;;1.30;;
39654;SDS011;25336;59.944;11.010;2023-03-19T05:36:55;1.20;;;1.10;;
39654;SDS011;25336;59.944;11.010;2023-03-19T05:39:21;2.38;;;1.15;;
39654;SDS011;25336;59.944;11.010;2023-03-19T05:41:47;2.10;;;1.40;;
39654;SDS011;25336;59.944;11.010;2023-03-19T05:44:13;1.33;;;1.10;;
39654;SDS011;25336;59.944;11.010;2023-03-19T05:46:38;1.38;;;1.27;;
39654;SDS011;25336;59.944;11.010;2023-03-19T05:49:04;1.85;;;1.10;;
39654;SDS011;25336;59.944;11.010;2023-03-19T05:51:30;1.38;;;1.27;;
39654;SDS011;25336;59.944;11.010;2023-03-19T05:53:55;1.02;;;1.02;;
39654;SDS011;25336;59.944;11.010;2023-03-19T05:56:21;1.35;;;1.20;;
39654;SDS011;25336;59.944;11.010;2023-03-19T05:58:47;1.90;;;1.45;;
39654;SDS011;25336;59.944;11.010;2023-03-19T06:01:13;1.15;;;1.05;;
39654;SDS011;25336;59.944;11.010;2023-03-19T06:03:38;1.15;;;1.10;;
39654;SDS011;25336;59.944;11.010;2023-03-19T06:06:04;1.20;;;1.10;;
39654;SDS011;25336;59.944;11.010;2023-03-19T06:08:31;1.30;;;1.20;;
39654;SDS011;25336;59.944;11.010;2023-03-19T06:10:56;2.17;;;1.45;;
39654;SDS011;25336;59.944;11.010;2023-03-19T06:13:22;1.60;;;1.08;;
39654;SDS011;25336;59.944;11.010;2023-03-19T06:15:48;1.77;;;1.40;;
39654;SDS011;25336;59.944;11.010;2023-03-19T06:18:14;1.13;;;1.02;;
39654;SDS011;25336;59.944;11.010;2023-03-19T06:20:40;1.42;;;1.30;;
39654;SDS011;25336;59.944;11.010;2023-03-19T06:23:06;2.85;;;1.30;;
39654;SDS011;25336;59.944;11.010;2023-03-19T06:25:32;1.17;;;1.08;;
39654;SDS011;25336;59.944;11.010;2023-03-19T06:27:57;1.25;;;1.15;;
39654;SDS011;25336;59.944;11.010;2023-03-19T06:30:23;1.23;;;1.13;;
39654;SDS011;25336;59.944;11.010;2023-03-19T06:32:49;1.60;;;1.40;;
39654;SDS011;25336;59.944;11.010;2023-03-19T06:35:14;1.50;;;1.40;;
39654;SDS011;25336;59.944;11.010;2023-03-19T06:37:40;1.50;;;1.40;;
39654;SDS011;25336;59.944;11.010;2023-03-19T06:40:05;2.20;;;1.30;;
39654;SDS011;25336;59.944;11.010;2023-03-19T06:42:31;1.23;;;1.13;;
39654;SDS011;25336;59.944;11.010;2023-03-19T06:44:57;2.25;;;1.55;;
39654;SDS011;25336;59.944;11.010;2023-03-19T06:47:23;2.22;;;1.40;;
39654;SDS011;25336;59.944;11.010;2023-03-19T06:49:49;2.05;;;1.30;;
39654;SDS011;25336;59.944;11.010;2023-03-19T06:52:15;1.77;;;1.67;;
39654;SDS011;25336;59.944;11.010;2023-03-19T06:54:40;2.15;;;1.60;;
39654;SDS011;25336;59.944;11.010;2023-03-19T06:57:06;2.28;;;1.80;;
39654;SDS011;25336;59.944;11.010;2023-03-19T06:59:32;1.90;;;1.60;;
39654;SDS011;25336;59.944;11.010;2023-03-19T07:01:57;1.50;;;1.40;;
39654;SDS011;25336;59.944;11.010;2023-03-19T07:04:23;1.50;;;1.40;;
39654;SDS011;25336;59.944;11.010;2023-03-19T07:06:48;2.60;;;1.90;;
39654;SDS011;25336;59.944;11.010;2023-03-19T07:09:15;2.10;;;1.17;;
39654;SDS011;25336;59.944;11.010;2023-03-19T07:11:41;1.88;;;1.67;;
39654;SDS011;25336;59.944;11.010;2023-03-19T07:14:06;1.50;;;1.40;;
39654;SDS011;25336;59.944;11.010;2023-03-19T07:16:32;1.50;;;1.40;;
39654;SDS011;25336;59.944;11.010;2023-03-19T07:18:58;1.25;;;1.13;;
39654;SDS011;25336;59.944;11.010;2023-03-19T07:21:23;2.10;;;1.50;;
39654;SDS011;25336;59.944;11.010;2023-03-19T07:23:49;2.75;;;1.40;;
39654;SDS011;25336;59.944;11.010;2023-03-19T07:26:15;1.83;;;1.38;;
39654;SDS011;25336;59.944;11.010;2023-03-19T07:28:41;2.05;;;1.33;;
39654;SDS011;25336;59.944;11.010;2023-03-19T07:31:07;2.53;;;1.52;;
39654;SDS011;25336;59.944;11.010;2023-03-19T07:33:32;1.35;;;1.25;;
39654;SDS011;25336;59.944;11.010;2023-03-19T07:35:58;2.15;;;1.60;;
39654;SDS011;25336;59.944;11.010;2023-03-19T07:38:23;2.03;;;1.70;;
39654;SDS011;25336;59.944;11.010;2023-03-19T07:40:49;3.45;;;1.90;;
39654;SDS011;25336;59.944;11.010;2023-03-19T07:43:15;2.97;;;1.85;;
39654;SDS011;25336;59.944;11.010;2023-03-19T07:45:41;2.38;;;2.17;;
39654;SDS011;25336;59.944;11.010;2023-03-19T07:48:06;3.85;;;2.30;;
39654;SDS011;25336;59.944;11.010;2023-03-19T07:50:32;2.47;;;2.15;;
39654;SDS011;25336;59.944;11.010;2023-03-19T07:52:58;2.47;;;1.83;;
39654;SDS011;25336;59.944;11.010;2023-03-19T07:55:24;2.95;;;2.03;;
39654;SDS011;25336;59.944;11.010;2023-03-19T07:57:49;4.35;;;1.88;;
39654;SDS011;25336;59.944;11.010;2023-03-19T08:00:15;5.25;;;1.85;;
39654;SDS011;25336;59.944;11.010;2023-03-19T08:02:41;4.78;;;2.30;;
39654;SDS011;25336;59.944;11.010;2023-03-19T08:05:08;2.65;;;2.38;;
39654;SDS011;25336;59.944;11.010;2023-03-19T08:07:34;5.50;;;2.28;;
39654;SDS011;25336;59.944;11.010;2023-03-19T08:10:01;3.63;;;2.58;;
39654;SDS011;25336;59.944;11.010;2023-03-19T08:12:29;4.55;;;2.30;;
39654;SDS011;25336;59.944;11.010;2023-03-19T08:14:56;2.70;;;2.47;;
39654;SDS011;25336;59.944;11.010;2023-03-19T08:17:22;3.20;;;2.80;;
39654;SDS011;25336;59.944;11.010;2023-03-19T08:19:47;2.97;;;2.42;;
39654;SDS011;25336;59.944;11.010;2023-03-19T08:22:13;4.07;;;2.30;;
39654;SDS011;25336;59.944;11.010;2023-03-19T08:24:38;4.60;;;2.83;;
39654;SDS011;25336;59.944;11.010;2023-03-19T08:27:04;4.88;;;2.70;;
39654;SDS011;25336;59.944;11.010;2023-03-19T08:29:30;6.13;;;3.28;;
39654;SDS011;25336;59.944;11.010;2023-03-19T08:31:56;3.80;;;2.45;;
39654;SDS011;25336;59.944;11.010;2023-03-19T08:34:23;3.25;;;2.75;;
39654;SDS011;25336;59.944;11.010;2023-03-19T08:36:49;4.93;;;3.03;;
39654;SDS011;25336;59.944;11.010;2023-03-19T08:39:14;4.50;;;2.58;;
39654;SDS011;25336;59.944;11.010;2023-03-19T08:41:40;5.20;;;3.20;;
39654;SDS011;25336;59.944;11.010;2023-03-19T08:44:05;5.28;;;3.25;;
39654;SDS011;25336;59.944;11.010;2023-03-19T08:46:31;5.85;;;3.20;;
39654;SDS011;25336;59.944;11.010;2023-03-19T08:48:57;9.57;;;4.22;;
39654;SDS011;25336;59.944;11.010;2023-03-19T08:51:23;7.10;;;4.07;;
39654;SDS011;25336;59.944;11.010;2023-03-19T08:53:50;4.97;;;3.20;;
39654;SDS011;25336;59.944;11.010;2023-03-19T08:56:16;6.40;;;4.13;;
39654;SDS011;25336;59.944;11.010;2023-03-19T08:58:41;11.10;;;4.20;;
39654;SDS011;25336;59.944;11.010;2023-03-19T09:01:11;6.70;;;4.47;;
39654;SDS011;25336;59.944;11.010;2023-03-19T09:03:39;7.97;;;4.97;;
39654;SDS011;25336;59.944;11.010;2023-03-19T09:06:06;7.45;;;4.35;;
39654;SDS011;25336;59.944;11.010;2023-03-19T09:08:34;7.38;;;4.05;;
39654;SDS011;25336;59.944;11.010;2023-03-19T09:11:01;7.03;;;3.65;;
39654;SDS011;25336;59.944;11.010;2023-03-19T09:13:27;6.32;;;3.60;;
39654;SDS011;25336;59.944;11.010;2023-03-19T09:15:52;9.00;;;4.40;;
39654;SDS011;25336;59.944;11.010;2023-03-19T09:18:19;7.28;;;3.65;;
39654;SDS011;25336;59.944;11.010;2023-03-19T09:20:45;7.40;;;4.22;;
39654;SDS011;25336;59.944;11.010;2023-03-19T09:23:11;7.82;;;4.65;;
39654;SDS011;25336;59.944;11.010;2023-03-19T09:25:37;6.55;;;4.05;;
39654;SDS011;25336;59.944;11.010;2023-03-19T09:28:03;6.72;;;4.20;;
39654;SDS011;25336;59.944;11.010;2023-03-19T09:30:28;9.55;;;4.00;;
39654;SDS011;25336;59.944;11.010;2023-03-19T09:32:54;6.55;;;4.65;;
39654;SDS011;25336;59.944;11.010;2023-03-19T09:35:20;7.53;;;4.10;;
39654;SDS011;25336;59.944;11.010;2023-03-19T09:37:47;8.10;;;4.65;;
39654;SDS011;25336;59.944;11.010;2023-03-19T09:41:00;8.07;;;4.45;;
39654;SDS011;25336;59.944;11.010;2023-03-19T09:45:41;6.65;;;4.85;;
39654;SDS011;25336;59.944;11.010;2023-03-19T09:48:11;7.78;;;3.97;;
39654;SDS011;25336;59.944;11.010;2023-03-19T09:50:43;8.63;;;3.80;;
39654;SDS011;25336;59.944;11.010;2023-03-19T09:56:26;6.97;;;4.63;;
39654;SDS011;25336;59.944;11.010;2023-03-19T09:58:52;7.88;;;4.65;;
39654;SDS011;25336;59.944;11.010;2023-03-19T10:01:22;6.60;;;3.90;;
39654;SDS011;25336;59.944;11.010;2023-03-19T10:04:03;7.85;;;4.03;;
39654;SDS011;25336;59.944;11.010;2023-03-19T10:06:34;7.03;;;4.60;;
39654;SDS011;25336;59.944;11.010;2023-03-19T10:16:59;11.32;;;4.55;;
39654;SDS011;25336;59.944;11.010;2023-03-19T10:19:42;11.52;;;4.50;;
39654;SDS011;25336;59.944;11.010;2023-03-19T10:22:13;10.65;;;5.03;;
39654;SDS011;25336;59.944;11.010;2023-03-19T10:24:47;10.18;;;5.93;;
39654;SDS011;25336;59.944;11.010;2023-03-19T10:27:17;12.32;;;5.43;;
39654;SDS011;25336;59.944;11.010;2023-03-19T10:29:44;14.20;;;7.03;;
39654;SDS011;25336;59.944;11.010;2023-03-19T10:32:22;12.85;;;5.93;;
39654;SDS011;25336;59.944;11.010;2023-03-19T10:34:50;13.95;;;6.28;;
39654;SDS011;25336;59.944;11.010;2023-03-19T10:37:21;9.02;;;5.45;;
39654;SDS011;25336;59.944;11.010;2023-03-19T10:39:50;14.93;;;6.47;;
39654;SDS011;25336;59.944;11.010;2023-03-19T10:47:48;11.23;;;5.43;;
39654;SDS011;25336;59.944;11.010;2023-03-19T10:50:17;10.27;;;5.30;;
39654;SDS011;25336;59.944;11.010;2023-03-19T10:52:49;10.82;;;6.43;;
39654;SDS011;25336;59.944;11.010;2023-03-19T10:55:23;12.60;;;7.07;;
39654;SDS011;25336;59.944;11.010;2023-03-19T10:57:55;13.00;;;6.45;;
39654;SDS011;25336;59.944;11.010;2023-03-19T11:00:28;12.07;;;6.88;;
39654;SDS011;25336;59.944;11.010;2023-03-19T11:02:59;15.90;;;8.57;;
39654;SDS011;25336;59.944;11.010;2023-03-19T11:05:29;14.18;;;8.85;;
39654;SDS011;25336;59.944;11.010;2023-03-19T11:07:58;12.95;;;8.13;;
39654;SDS011;25336;59.944;11.010;2023-03-19T11:10:27;10.95;;;7.38;;
39654;SDS011;25336;59.944;11.010;2023-03-19T11:12:59;12.70;;;8.57;;
39654;SDS011;25336;59.944;11.010;2023-03-19T11:15:39;13.85;;;7.40;;
39654;SDS011;25336;59.944;11.010;2023-03-19T11:18:15;13.30;;;7.57;;
39654;SDS011;25336;59.944;11.010;2023-03-19T11:20:48;13.20;;;7.53;;
39654;SDS011;25336;59.944;11.010;2023-03-19T11:23:19;17.48;;;7.70;;
39654;SDS011;25336;59.944;11.010;2023-03-19T11:25:46;13.38;;;7.18;;
39654;SDS011;25336;59.944;11.010;2023-03-19T11:28:20;13.18;;;6.45;;
39654;SDS011;25336;59.944;11.010;2023-03-19T11:30:56;18.40;;;10.90;;
39654;SDS011;25336;59.944;11.010;2023-03-19T11:36:28;23.33;;;13.13;;
39654;SDS011;25336;59.944;11.010;2023-03-19T11:39:14;25.17;;;14.35;;
39654;SDS011;25336;59.944;11.010;2023-03-19T11:48:05;23.80;;;12.35;;
39654;SDS011;25336;59.944;11.010;2023-03-19T11:53:26;22.27;;;12.27;;
39654;SDS011;25336;59.944;11.010;2023-03-19T11:56:09;25.30;;;14.32;;
39654;SDS011;25336;59.944;11.010;2023-03-19T12:01:41;21.50;;;10.90;;
39654;SDS011;25336;59.944;11.010;2023-03-19T12:07:18;20.20;;;11.93;;
39654;SDS011;25336;59.944;11.010;2023-03-19T12:21:54;28.38;;;16.60;;
39654;SDS011;25336;59.944;11.010;2023-03-19T12:24:09;72.30;;;36.67;;
39654;SDS011;25336;59.944;11.010;2023-03-19T12:29:06;38.40;;;20.48;;
39654;SDS011;25336;59.944;11.010;2023-03-19T12:34:28;55.33;;;26.40;;
39654;SDS011;25336;59.944;11.010;2023-03-19T12:37:15;43.17;;;25.40;;
39654;SDS011;25336;59.944;11.010;2023-03-19T12:40:25;40.72;;;24.58;;
39654;SDS011;25336;59.944;11.010;2023-03-19T12:42:59;32.38;;;19.45;;
39654;SDS011;25336;59.944;11.010;2023-03-19T12:45:34;34.83;;;17.30;;
39654;SDS011;25336;59.944;11.010;2023-03-19T12:48:07;27.63;;;16.38;;
39654;SDS011;25336;59.944;11.010;2023-03-19T12:50:37;26.63;;;17.13;;
39654;SDS011;25336;59.944;11.010;2023-03-19T12:53:08;24.25;;;14.00;;
39654;SDS011;25336;59.944;11.010;2023-03-19T12:55:42;16.25;;;10.48;;
39654;SDS011;25336;59.944;11.010;2023-03-19T12:58:17;10.95;;;8.20;;
39654;SDS011;25336;59.944;11.010;2023-03-19T13:00:53;8.73;;;5.75;;
39654;SDS011;25336;59.944;11.010;2023-03-19T13:03:27;5.63;;;4.50;;
39654;SDS011;25336;59.944;11.010;2023-03-19T13:06:30;6.03;;;4.70;;
39654;SDS011;25336;59.944;11.010;2023-03-19T13:09:05;5.25;;;4.22;;
39654;SDS011;25336;59.944;11.010;2023-03-19T13:11:45;5.47;;;4.47;;
39654;SDS011;25336;59.944;11.010;2023-03-19T13:14:24;4.60;;;3.88;;
39654;SDS011;25336;59.944;11.010;2023-03-19T13:17:00;7.18;;;4.25;;
39654;SDS011;25336;59.944;11.010;2023-03-19T13:19:50;5.03;;;4.28;;
39654;SDS011;25336;59.944;11.010;2023-03-19T13:22:22;4.30;;;3.45;;
39654;SDS011;25336;59.944;11.010;2023-03-19T13:24:52;3.35;;;2.25;;
39654;SDS011;25336;59.944;11.010;2023-03-19T13:30:10;2.20;;;2.03;;
39654;SDS011;25336;59.944;11.010;2023-03-19T13:32:43;3.00;;;2.40;;
39654;SDS011;25336;59.944;11.010;2023-03-19T13:37:54;3.15;;;2.92;;
39654;SDS011;25336;59.944;11.010;2023-03-19T13:43:46;2.17;;;1.90;;
39654;SDS011;25336;59.944;11.010;2023-03-19T13:59:31;5.07;;;1.75;;
39654;SDS011;25336;59.944;11.010;2023-03-19T14:01:57;1.50;;;1.40;;
39654;SDS011;25336;59.944;11.010;2023-03-19T14:07:09;1.30;;;1.20;;
39654;SDS011;25336;59.944;11.010;2023-03-19T14:09:42;3.22;;;1.58;;
39654;SDS011;25336;59.944;11.010;2023-03-19T14:17:17;1.90;;;1.80;;
39654;SDS011;25336;59.944;11.010;2023-03-19T14:19:46;2.30;;;2.10;;
39654;SDS011;25336;59.944;11.010;2023-03-19T14:25:24;1.95;;;1.60;;
39654;SDS011;25336;59.944;11.010;2023-03-19T14:27:55;1.73;;;1.45;;
39654;SDS011;25336;59.944;11.010;2023-03-19T14:30:37;1.77;;;1.50;;
39654;SDS011;25336;59.944;11.010;2023-03-19T14:33:13;1.23;;;1.13;;
39654;SDS011;25336;59.944;11.010;2023-03-19T14:35:50;2.00;;;1.80;;
39654;SDS011;25336;59.944;11.010;2023-03-19T14:38:24;1.00;;;1.00;;
39654;SDS011;25336;59.944;11.010;2023-03-19T14:40:58;1.48;;;1.20;;
39654;SDS011;25336;59.944;11.010;2023-03-19T14:43:39;0.90;;;0.90;;
39654;SDS011;25336;59.944;11.010;2023-03-19T14:49:29;1.40;;;1.30;;
39654;SDS011;25336;59.944;11.010;2023-03-19T14:55:01;1.13;;;1.08;;
39654;SDS011;25336;59.944;11.010;2023-03-19T14:57:33;1.25;;;1.10;;
39654;SDS011;25336;59.944;11.010;2023-03-19T14:59:59;1.65;;;1.50;;
39654;SDS011;25336;59.944;11.010;2023-03-19T15:04:58;1.85;;;1.35;;
39654;SDS011;25336;59.944;11.010;2023-03-19T15:07:31;2.05;;;1.65;;
39654;SDS011;25336;59.944;11.010;2023-03-19T15:10:02;1.40;;;1.20;;
39654;SDS011;25336;59.944;11.010;2023-03-19T15:15:19;1.92;;;1.25;;
39654;SDS011;25336;59.944;11.010;2023-03-19T15:18:07;1.23;;;1.13;;
39654;SDS011;25336;59.944;11.010;2023-03-19T15:20:44;1.08;;;0.98;;
39654;SDS011;25336;59.944;11.010;2023-03-19T15:23:18;1.30;;;1.20;;
39654;SDS011;25336;59.944;11.010;2023-03-19T15:25:49;1.00;;;1.00;;
39654;SDS011;25336;59.944;11.010;2023-03-19T15:28:17;0.80;;;0.80;;
39654;SDS011;25336;59.944;11.010;2023-03-19T15:30:44;0.82;;;0.82;;
39654;SDS011;25336;59.944;11.010;2023-03-19T15:33:29;1.17;;;1.05;;
39654;SDS011;25336;59.944;11.010;2023-03-19T15:35:57;1.58;;;1.48;;
39654;SDS011;25336;59.944;11.010;2023-03-19T15:38:29;1.48;;;1.17;;
39654;SDS011;25336;59.944;11.010;2023-03-19T15:41:04;0.93;;;0.93;;
39654;SDS011;25336;59.944;11.010;2023-03-19T15:46:00;1.15;;;1.05;;
39654;SDS011;25336;59.944;11.010;2023-03-19T15:51:02;1.42;;;1.08;;
39654;SDS011;25336;59.944;11.010;2023-03-19T15:53:31;1.77;;;1.20;;
39654;SDS011;25336;59.944;11.010;2023-03-19T15:55:58;1.30;;;1.20;;
39654;SDS011;25336;59.944;11.010;2023-03-19T15:58:27;3.25;;;1.80;;
39654;SDS011;25336;59.944;11.010;2023-03-19T16:00:55;1.77;;;1.67;;
39654;SDS011;25336;59.944;11.010;2023-03-19T16:03:24;2.72;;;1.80;;
39654;SDS011;25336;59.944;11.010;2023-03-19T16:06:00;1.95;;;1.85;;
39654;SDS011;25336;59.944;11.010;2023-03-19T16:08:28;1.83;;;1.65;;
39654;SDS011;25336;59.944;11.010;2023-03-19T16:10:54;2.65;;;2.20;;
39654;SDS011;25336;59.944;11.010;2023-03-19T16:13:39;1.65;;;1.55;;
39654;SDS011;25336;59.944;11.010;2023-03-19T16:18:41;1.77;;;1.67;;
39654;SDS011;25336;59.944;11.010;2023-03-19T16:21:16;1.95;;;1.73;;
39654;SDS011;25336;59.944;11.010;2023-03-19T16:23:49;1.98;;;1.70;;
39654;SDS011;25336;59.944;11.010;2023-03-19T16:26:35;2.63;;;1.77;;
39654;SDS011;25336;59.944;11.010;2023-03-19T16:29:19;2.25;;;1.83;;